Time;durP1;ratioP1;P1;durP2;ratioP2;P2;SDS_P1;SDS_P2;PMS_P1;PMS_P2;Temp;Humidity;BMP_temperature;BMP_pressure;BME280_temperature;BME280_humidity;BME280_pressure;Samples;Min_cycle;Max_cycle;Signal;HPM_P1;HPM_P2
2024/05/02 00:00:22;;;;;;;4.23;3.93;;;21.20;62.80;;;;;;5418659;26;20615;-84
2024/05/02 00:02:50;;;;;;;4.97;4.20;;;21.50;63.20;;;;;;5421715;26;20546;-83
2024/05/02 00:05:21;;;;;;;4.33;4.03;;;21.10;62.90;;;;;;5424370;26;20962;-84
2024/05/02 00:07:49;;;;;;;4.40;4.10;;;21.20;62.90;;;;;;5422785;26;20493;-84
2024/05/02 00:10:18;;;;;;;5.23;4.33;;;21.30;63.10;;;;;;5423761;26;20470;-84
2024/05/02 00:12:46;;;;;;;5.27;4.27;;;21.10;62.80;;;;;;5423016;26;20522;-84
2024/05/02 00:15:15;;;;;;;4.27;3.87;;;21.10;63.80;;;;;;5423662;26;20630;-84
2024/05/02 00:17:44;;;;;;;7.27;4.00;;;21.10;63.20;;;;;;5421403;26;21069;-83
2024/05/02 00:20:14;;;;;;;4.23;3.93;;;21.30;63.50;;;;;;5424166;26;20459;-83
2024/05/02 00:22:45;;;;;;;4.40;4.07;;;20.90;63.30;;;;;;5422532;26;20533;-83
2024/05/02 00:25:13;;;;;;;4.20;3.80;;;21.00;63.50;;;;;;5425379;26;20572;-83
2024/05/02 00:27:42;;;;;;;4.50;4.10;;;21.00;63.60;;;;;;5424616;26;20482;-83
2024/05/02 00:30:11;;;;;;;3.97;3.67;;;21.10;64.00;;;;;;5423055;26;20482;-82
2024/05/02 00:32:39;;;;;;;4.77;4.27;;;20.80;63.70;;;;;;5424612;26;20535;-83
2024/05/02 00:35:08;;;;;;;4.57;4.17;;;20.80;63.80;;;;;;5424705;26;20580;-83
2024/05/02 00:37:36;;;;;;;7.80;4.50;;;20.80;64.00;;;;;;5426593;26;20483;-83
2024/05/02 00:40:08;;;;;;;4.23;3.90;;;20.70;63.90;;;;;;5426143;26;20618;-83
2024/05/02 00:42:37;;;;;;;4.80;4.30;;;20.70;64.10;;;;;;5425704;26;20533;-83
2024/05/02 00:45:06;;;;;;;4.73;4.20;;;20.70;64.20;;;;;;5425715;26;20545;-83
2024/05/02 00:47:35;;;;;;;4.40;4.10;;;20.30;64.00;;;;;;5425622;26;20523;-83
2024/05/02 00:50:03;;;;;;;3.93;3.63;;;20.70;64.60;;;;;;5424522;26;20556;-84
2024/05/02 00:52:32;;;;;;;4.87;4.37;;;20.60;64.80;;;;;;5424293;26;20463;-82
2024/05/02 00:55:01;;;;;;;4.23;3.83;;;20.60;64.70;;;;;;5426659;26;20466;-83
2024/05/02 00:57:32;;;;;;;6.53;4.80;;;20.70;64.70;;;;;;5426043;26;20471;-83
2024/05/02 01:00:01;;;;;;;4.70;4.40;;;20.60;64.60;;;;;;5425896;26;20474;-83
2024/05/02 01:02:29;;;;;;;6.00;3.77;;;20.60;65.00;;;;;;5427434;26;20482;-84
2024/05/02 01:04:58;;;;;;;6.63;4.30;;;20.60;65.00;;;;;;5426238;26;20576;-85
2024/05/02 01:07:26;;;;;;;5.60;5.10;;;20.60;65.10;;;;;;5428252;26;20581;-83
2024/05/02 01:09:55;;;;;;;4.83;4.47;;;20.60;65.20;;;;;;5422411;26;20542;-83
2024/05/02 01:12:23;;;;;;;5.50;4.17;;;20.90;65.80;;;;;;5429841;26;20463;-83
2024/05/02 01:14:58;;;;;;;4.60;4.20;;;20.60;65.40;;;;;;5430298;26;20966;-83
2024/05/02 01:17:26;;;;;;;5.00;4.60;;;20.80;66.10;;;;;;5430979;26;20514;-82
2024/05/02 01:19:55;;;;;;;6.63;4.10;;;20.50;65.70;;;;;;5429378;26;20473;-82
2024/05/02 01:22:24;;;;;;;4.73;4.33;;;20.50;65.90;;;;;;5430301;26;20467;-82
2024/05/02 01:24:55;;;;;;;5.83;4.33;;;20.50;66.40;;;;;;5424007;26;21065;-81
2024/05/02 01:27:23;;;;;;;4.33;4.03;;;20.50;66.20;;;;;;5428708;26;21044;-83
2024/05/02 01:29:52;;;;;;;4.53;4.20;;;20.60;66.30;;;;;;5427113;26;20560;-82
2024/05/02 01:32:20;;;;;;;4.70;4.30;;;20.50;66.30;;;;;;5429059;26;20586;-82
2024/05/02 01:34:49;;;;;;;4.43;4.03;;;20.40;66.60;;;;;;5432124;26;20558;-82
2024/05/02 01:37:18;;;;;;;6.63;4.80;;;20.40;66.80;;;;;;5420346;26;20518;-84
2024/05/02 01:39:46;;;;;;;4.63;4.13;;;20.40;66.80;;;;;;5433563;26;20463;-83
2024/05/02 01:42:18;;;;;;;5.80;5.20;;;20.20;67.10;;;;;;5434977;26;20479;-83
2024/05/02 01:44:46;;;;;;;4.90;4.30;;;20.30;67.30;;;;;;5435640;26;21135;-83
2024/05/02 01:47:15;;;;;;;10.50;5.03;;;20.30;67.20;;;;;;5421060;26;20518;-85
2024/05/02 01:49:43;;;;;;;6.83;5.13;;;20.20;67.20;;;;;;5432704;26;20581;-84
2024/05/02 01:52:12;;;;;;;4.97;4.60;;;20.30;67.30;;;;;;5435054;26;20563;-84
2024/05/02 01:54:40;;;;;;;4.57;4.17;;;20.30;67.40;;;;;;5433213;26;20585;-83
2024/05/02 01:57:08;;;;;;;4.63;4.33;;;19.90;67.00;;;;;;5428563;26;20653;-83
2024/05/02 01:59:39;;;;;;;4.57;4.27;;;20.40;67.80;;;;;;5424623;26;20573;-82
2024/05/02 02:02:08;;;;;;;5.60;4.40;;;20.20;67.60;;;;;;5426990;26;20569;-82
2024/05/02 02:04:36;;;;;;;4.43;4.17;;;20.50;68.00;;;;;;5427305;26;20479;-82
2024/05/02 02:07:05;;;;;;;4.73;4.43;;;20.20;67.60;;;;;;5431999;26;20482;-84
2024/05/02 02:09:33;;;;;;;4.90;4.60;;;20.20;68.00;;;;;;5433121;26;20562;-83
2024/05/02 02:12:02;;;;;;;6.00;4.33;;;20.10;68.30;;;;;;5434375;26;20588;-84
2024/05/02 02:14:30;;;;;;;6.13;5.63;;;20.00;68.30;;;;;;5434567;26;20544;-84
2024/05/02 02:17:01;;;;;;;4.73;4.33;;;20.00;68.40;;;;;;5439185;21;21049;-84
2024/05/02 02:19:29;;;;;;;4.87;4.43;;;20.00;68.30;;;;;;5405073;26;20483;-84
2024/05/02 02:21:58;;;;;;;5.57;5.07;;;20.30;68.70;;;;;;5414992;26;20602;-85
2024/05/02 02:24:26;;;;;;;5.23;4.73;;;20.10;68.40;;;;;;5421158;26;20463;-84
2024/05/02 02:26:55;;;;;;;6.23;5.37;;;20.20;68.60;;;;;;5421336;26;20526;-84
2024/05/02 02:29:23;;;;;;;5.20;4.70;;;20.10;69.30;;;;;;5420724;26;21052;-85
2024/05/02 02:31:52;;;;;;;7.70;4.97;;;20.00;69.20;;;;;;5399133;26;20626;-84
2024/05/02 02:34:23;;;;;;;4.73;4.33;;;20.00;70.50;;;;;;5416031;26;21012;-84
2024/05/02 02:36:51;;;;;;;5.37;4.90;;;20.00;71.00;;;;;;5421014;26;20538;-84
2024/05/02 02:39:19;;;;;;;5.00;4.60;;;19.90;71.00;;;;;;5416744;26;21167;-84
2024/05/02 02:41:48;;;;;;;5.27;4.77;;;19.90;71.30;;;;;;5406858;26;20543;-83
2024/05/02 02:44:16;;;;;;;5.60;5.10;;;19.90;71.70;;;;;;5419862;26;20533;-83
2024/05/02 02:46:44;;;;;;;5.40;5.00;;;19.90;71.80;;;;;;5412286;26;20583;-83
2024/05/02 02:49:13;;;;;;;5.73;5.13;;;19.90;71.60;;;;;;5419819;26;20614;-83
2024/05/02 02:51:44;;;;;;;5.67;4.97;;;19.80;71.90;;;;;;5408460;26;20615;-83
2024/05/02 02:54:12;;;;;;;5.60;5.10;;;19.70;71.50;;;;;;5402546;26;20489;-83
2024/05/02 02:56:40;;;;;;;4.87;4.47;;;19.70;71.40;;;;;;5406658;26;20995;-83
2024/05/02 02:59:09;;;;;;;7.13;5.33;;;19.80;71.20;;;;;;5417254;26;21146;-83
2024/05/02 03:01:43;;;;;;;5.47;5.07;;;19.70;70.70;;;;;;5412835;26;20552;-83
2024/05/02 03:04:14;;;;;;;5.33;4.93;;;19.70;70.50;;;;;;5419765;26;21040;-83
2024/05/02 03:06:45;;;;;;;5.27;4.77;;;19.70;70.30;;;;;;5408747;26;20546;-83
2024/05/02 03:09:14;;;;;;;5.27;4.87;;;19.70;70.30;;;;;;5419267;26;20901;-83
2024/05/02 03:11:42;;;;;;;5.37;4.97;;;19.70;70.40;;;;;;5411405;26;20625;-83
2024/05/02 03:14:10;;;;;;;5.90;5.30;;;19.70;70.60;;;;;;5417021;26;20625;-82
2024/05/02 03:16:39;;;;;;;5.27;4.77;;;19.60;70.40;;;;;;5418095;26;20828;-84
2024/05/02 03:19:07;;;;;;;5.70;5.23;;;19.60;70.50;;;;;;5420314;26;20475;-85
2024/05/02 03:21:36;;;;;;;6.37;5.77;;;19.60;70.70;;;;;;5415945;26;20533;-83
2024/05/02 03:24:08;;;;;;;5.73;5.23;;;19.50;70.80;;;;;;5416983;26;20598;-84
2024/05/02 03:26:36;;;;;;;5.60;5.20;;;19.50;70.80;;;;;;5409852;26;20489;-84
2024/05/02 03:29:04;;;;;;;6.53;4.97;;;19.40;70.90;;;;;;5405429;26;20616;-83
2024/05/02 03:31:33;;;;;;;7.60;5.93;;;19.50;71.10;;;;;;5408977;26;20951;-83
2024/05/02 03:34:01;;;;;;;6.40;5.73;;;19.30;71.20;;;;;;5417352;26;20594;-83
2024/05/02 03:36:31;;;;;;;5.97;5.33;;;19.20;71.60;;;;;;5411159;26;20475;-83
2024/05/02 03:38:59;;;;;;;6.47;5.80;;;19.20;71.80;;;;;;5413200;26;20481;-83
2024/05/02 03:41:30;;;;;;;6.83;5.20;;;19.40;72.20;;;;;;5405427;26;20549;-84
2024/05/02 03:43:59;;;;;;;5.50;5.13;;;19.40;72.40;;;;;;5418537;26;20594;-84
2024/05/02 03:46:27;;;;;;;6.20;5.67;;;19.20;72.30;;;;;;5418653;26;20615;-84
2024/05/02 03:48:55;;;;;;;5.40;5.00;;;19.10;72.20;;;;;;5419815;26;20544;-84
2024/05/02 03:51:24;;;;;;;6.30;5.70;;;19.20;72.40;;;;;;5412754;26;20621;-84
2024/05/02 03:53:52;;;;;;;7.57;4.87;;;19.40;72.80;;;;;;5420365;26;20473;-83
2024/05/02 03:56:21;;;;;;;6.40;5.80;;;19.20;72.70;;;;;;5415252;26;20533;-84
2024/05/02 03:58:52;;;;;;;7.00;5.57;;;19.10;72.50;;;;;;5405154;26;20928;-84
2024/05/02 04:01:20;;;;;;;6.00;5.50;;;19.10;72.80;;;;;;5394029;26;20568;-84
2024/05/02 04:03:49;;;;;;;9.47;5.10;;;19.10;73.00;;;;;;5413066;26;20561;-84
2024/05/02 04:06:17;;;;;;;5.97;5.47;;;19.10;73.10;;;;;;5401295;26;20501;-84
2024/05/02 04:08:46;;;;;;;6.40;5.90;;;19.00;73.20;;;;;;5403073;26;20548;-84
2024/05/02 04:11:14;;;;;;;6.17;5.60;;;19.00;73.50;;;;;;5415811;26;20617;-83
2024/05/02 04:13:42;;;;;;;7.00;5.00;;;19.00;73.70;;;;;;5419470;26;20546;-84
2024/05/02 04:16:13;;;;;;;5.73;5.33;;;19.00;73.90;;;;;;5400940;26;20973;-85
2024/05/02 04:18:42;;;;;;;6.00;5.50;;;19.20;74.40;;;;;;5413197;26;20517;-85
2024/05/02 04:21:12;;;;;;;6.83;5.33;;;19.00;74.20;;;;;;5405405;26;20626;-85
2024/05/02 04:23:40;;;;;;;10.57;5.50;;;19.00;74.20;;;;;;5419256;26;20488;-85
2024/05/02 04:26:12;;;;;;;5.60;5.20;;;19.00;74.30;;;;;;5417992;26;20528;-85
2024/05/02 04:28:40;;;;;;;6.00;5.50;;;19.00;74.40;;;;;;5412176;26;20484;-85
2024/05/02 04:31:09;;;;;;;5.87;5.43;;;19.00;74.60;;;;;;5419546;26;20585;-85
2024/05/02 04:33:40;;;;;;;5.77;5.20;;;19.00;74.60;;;;;;5412019;26;20584;-85
2024/05/02 04:36:09;;;;;;;6.80;6.10;;;18.90;74.70;;;;;;5399349;26;20604;-85
2024/05/02 04:38:39;;;;;;;8.47;6.50;;;19.20;75.40;;;;;;5419456;26;20615;-85
2024/05/02 04:41:07;;;;;;;7.80;5.57;;;18.90;75.20;;;;;;5420412;26;20471;-84
2024/05/02 04:43:36;;;;;;;7.10;6.30;;;18.90;75.50;;;;;;5417132;26;20620;-85
2024/05/02 04:46:06;;;;;;;6.60;5.97;;;18.90;75.70;;;;;;5405458;26;20599;-84
2024/05/02 04:48:35;;;;;;;8.50;6.03;;;19.00;76.00;;;;;;5419061;26;20473;-85
2024/05/02 04:51:06;;;;;;;6.90;6.30;;;18.90;75.90;;;;;;5419112;26;21026;-84
2024/05/02 04:53:35;;;;;;;8.67;5.80;;;18.90;75.90;;;;;;5396330;26;20608;-83
2024/05/02 04:56:03;;;;;;;7.00;6.40;;;18.90;76.20;;;;;;5412149;26;20554;-83
2024/05/02 04:58:31;;;;;;;6.70;6.07;;;18.90;76.10;;;;;;5419656;26;20582;-86
2024/05/02 05:01:00;;;;;;;6.10;5.53;;;18.90;76.50;;;;;;5417559;26;20488;-85
2024/05/02 05:03:29;;;;;;;7.33;5.50;;;19.00;76.60;;;;;;5410032;26;20528;-83
2024/05/02 05:05:58;;;;;;;6.97;6.40;;;19.00;76.70;;;;;;5407256;26;20858;-84
2024/05/02 05:08:29;;;;;;;6.80;6.20;;;19.00;77.00;;;;;;5415632;26;20486;-85
2024/05/02 05:10:58;;;;;;;6.93;5.90;;;19.20;77.20;;;;;;5418607;26;20635;-83
2024/05/02 05:13:27;;;;;;;6.33;5.40;;;19.20;77.80;;;;;;5407844;26;21039;-82
2024/05/02 05:15:55;;;;;;;6.57;6.07;;;19.00;78.10;;;;;;5415150;26;20534;-82
2024/05/02 05:18:27;;;;;;;6.47;5.83;;;19.00;78.20;;;;;;5414691;26;20526;-82
2024/05/02 05:20:56;;;;;;;6.53;5.97;;;19.10;78.40;;;;;;5418390;26;20636;-82
2024/05/02 05:23:24;;;;;;;6.57;6.03;;;19.10;78.50;;;;;;5417575;26;20468;-82
2024/05/02 05:25:55;;;;;;;5.90;5.50;;;19.20;78.00;;;;;;5418762;26;20484;-83
2024/05/02 05:28:23;;;;;;;6.93;6.23;;;19.20;78.40;;;;;;5403330;26;20475;-82
2024/05/02 05:30:52;;;;;;;7.53;5.93;;;19.30;78.30;;;;;;5403318;26;20553;-84
2024/05/02 05:33:20;;;;;;;6.50;5.90;;;19.30;78.10;;;;;;5414022;26;20538;-85
2024/05/02 05:35:49;;;;;;;8.03;6.23;;;19.30;78.30;;;;;;5412476;26;20469;-85
2024/05/02 05:38:15;;;;;;;8.03;5.63;;;19.30;78.80;;;;;;5396465;26;20515;-82
2024/05/02 05:40:43;;;;;;;6.30;5.80;;;19.20;78.90;;;;;;5409426;26;20486;-80
2024/05/02 05:43:14;;;;;;;6.10;5.57;;;19.20;78.50;;;;;;5392952;26;20281;-82
2024/05/02 05:45:43;;;;;;;7.30;6.30;;;19.30;78.70;;;;;;5404261;26;21132;-81
2024/05/02 05:48:11;;;;;;;7.13;6.33;;;19.30;79.30;;;;;;5413800;26;20564;-81
2024/05/02 05:50:39;;;;;;;6.07;5.57;;;19.40;78.50;;;;;;5414362;26;20604;-80
2024/05/02 05:53:08;;;;;;;8.07;7.27;;;19.70;78.90;;;;;;5412386;26;20478;-81
2024/05/02 05:55:36;;;;;;;6.27;5.77;;;19.50;78.60;;;;;;5413746;26;20522;-81
2024/05/02 05:58:05;;;;;;;6.87;5.70;;;19.60;78.40;;;;;;5416114;26;20461;-82
2024/05/02 06:00:36;;;;;;;5.80;5.37;;;19.60;78.40;;;;;;5414799;26;20556;-81
2024/05/02 06:03:05;;;;;;;6.33;5.83;;;19.60;79.10;;;;;;5420981;26;20532;-86
2024/05/02 06:05:34;;;;;;;6.83;6.13;;;19.60;79.10;;;;;;5423480;26;20626;-85
2024/05/02 06:08:02;;;;;;;6.20;5.80;;;19.60;79.10;;;;;;5421646;26;20532;-85
2024/05/02 06:10:30;;;;;;;5.67;5.20;;;19.70;79.10;;;;;;5443841;26;20577;-86
2024/05/02 06:12:59;;;;;;;5.80;5.40;;;19.80;79.50;;;;;;5422113;26;20548;-85
2024/05/02 06:15:28;;;;;;;5.80;5.30;;;20.00;79.50;;;;;;5417785;26;20628;-85
2024/05/02 06:17:59;;;;;;;6.37;5.80;;;19.80;79.70;;;;;;5425654;26;20481;-85
2024/05/02 06:20:28;;;;;;;6.93;5.30;;;20.10;79.90;;;;;;5439374;26;20477;-88
2024/05/02 06:22:56;;;;;;;6.03;5.33;;;19.90;79.30;;;;;;5413896;26;20485;-89
2024/05/02 06:25:24;;;;;;;5.47;5.07;;;20.00;79.50;;;;;;5429468;26;20482;-88
2024/05/02 06:27:53;;;;;;;5.97;5.43;;;20.20;80.00;;;;;;5421848;26;20478;-88
2024/05/02 06:30:22;;;;;;;6.33;4.83;;;20.20;79.90;;;;;;5418148;26;20920;-88
2024/05/02 06:32:51;;;;;;;7.03;6.33;;;20.40;80.10;;;;;;5426708;26;21026;-87
2024/05/02 06:35:23;;;;;;;5.37;4.97;;;20.40;79.60;;;;;;5421220;26;20527;-87
2024/05/02 06:37:51;;;;;;;4.90;4.47;;;20.50;79.50;;;;;;5413607;26;20479;-86
2024/05/02 06:40:20;;;;;;;5.00;4.40;;;20.30;78.70;;;;;;5434700;26;20713;-87
2024/05/02 06:42:48;;;;;;;6.30;4.90;;;20.60;79.00;;;;;;5422407;26;21073;-88
2024/05/02 06:45:16;;;;;;;7.40;4.47;;;20.60;79.30;;;;;;5424104;26;20944;-87
2024/05/02 06:47:45;;;;;;;5.10;4.70;;;20.60;79.40;;;;;;5423591;26;20592;-88
2024/05/02 06:50:13;;;;;;;5.60;4.80;;;20.70;79.60;;;;;;5432682;26;20534;-87
2024/05/02 06:52:45;;;;;;;8.17;4.90;;;20.80;79.60;;;;;;5421283;26;20578;-88
2024/05/02 06:55:13;;;;;;;5.20;4.70;;;20.90;80.00;;;;;;5410465;26;20476;-88
2024/05/02 06:57:41;;;;;;;7.40;4.43;;;21.20;80.00;;;;;;5384904;26;20456;-88
2024/05/02 07:00:10;;;;;;;5.00;4.60;;;21.20;79.70;;;;;;5425179;26;20616;-87
2024/05/02 07:02:39;;;;;;;10.67;5.40;;;21.40;78.40;;;;;;5420399;26;21153;-88
2024/05/02 07:05:08;;;;;;;4.80;4.40;;;21.40;79.00;;;;;;5421158;26;20443;-88
2024/05/02 07:07:36;;;;;;;5.20;4.70;;;21.60;79.60;;;;;;5404079;26;20562;-88
2024/05/02 07:10:08;;;;;;;5.43;4.80;;;21.70;78.60;;;;;;5422397;26;20479;-88
2024/05/02 07:12:36;;;;;;;6.90;5.00;;;21.80;77.30;;;;;;5410270;26;20477;-88
2024/05/02 07:15:05;;;;;;;6.00;4.90;;;21.90;76.40;;;;;;5420396;26;20451;-88
2024/05/02 07:17:33;;;;;;;4.37;4.03;;;21.90;76.10;;;;;;5419847;26;20530;-88
2024/05/02 07:20:02;;;;;;;6.30;4.80;;;22.00;76.40;;;;;;5426539;26;20487;-88
2024/05/02 07:22:30;;;;;;;5.53;5.00;;;22.00;76.10;;;;;;5420113;26;20569;-87
2024/05/02 07:24:59;;;;;;;4.70;4.30;;;22.20;76.50;;;;;;5409005;26;20461;-88
2024/05/02 07:27:30;;;;;;;4.90;4.50;;;22.20;76.70;;;;;;5457414;26;21020;-88
2024/05/02 07:29:58;;;;;;;8.90;5.23;;;22.40;74.90;;;;;;5426353;26;20474;-87
2024/05/02 07:32:27;;;;;;;5.63;5.10;;;22.30;74.90;;;;;;5422005;26;20569;-88
2024/05/02 07:34:55;;;;;;;5.03;4.63;;;22.40;75.50;;;;;;5423367;26;20831;-88
2024/05/02 07:37:24;;;;;;;5.43;4.67;;;22.50;76.00;;;;;;5422981;26;20474;-87
2024/05/02 07:39:52;;;;;;;8.80;5.30;;;22.60;75.10;;;;;;5421891;26;20896;-88
2024/05/02 07:42:21;;;;;;;6.00;5.40;;;22.60;74.40;;;;;;5446752;26;20591;-88
2024/05/02 07:44:52;;;;;;;5.00;4.60;;;22.60;73.20;;;;;;5457050;26;20456;-88
2024/05/02 07:47:20;;;;;;;5.30;4.80;;;22.60;74.50;;;;;;5457528;26;21017;-88
2024/05/02 07:49:49;;;;;;;6.33;5.47;;;22.60;74.80;;;;;;5439883;26;20483;-89
2024/05/02 07:52:18;;;;;;;7.17;5.10;;;22.50;74.20;;;;;;5424425;26;20466;-87
2024/05/02 07:54:46;;;;;;;4.87;4.57;;;22.50;74.20;;;;;;5424684;26;20450;-88
2024/05/02 07:57:15;;;;;;;6.17;5.57;;;22.60;74.60;;;;;;5402388;26;20580;-87
2024/05/02 07:59:43;;;;;;;5.97;5.37;;;22.70;73.80;;;;;;5443682;26;20891;-88
2024/05/02 08:02:14;;;;;;;6.73;4.50;;;22.90;73.70;;;;;;5422508;26;20649;-87
2024/05/02 08:04:43;;;;;;;6.53;5.60;;;23.00;73.50;;;;;;5424525;26;20472;-88
2024/05/02 08:07:11;;;;;;;5.60;5.10;;;23.30;74.10;;;;;;5423556;26;20488;-86
2024/05/02 08:09:39;;;;;;;4.47;4.13;;;23.40;73.40;;;;;;5404972;26;20600;-87
2024/05/02 08:12:08;;;;;;;5.37;4.87;;;23.60;73.00;;;;;;5421876;26;20482;-88
2024/05/02 08:14:36;;;;;;;4.90;4.50;;;23.80;72.40;;;;;;5422109;26;20491;-89
2024/05/02 08:17:05;;;;;;;5.73;4.30;;;24.20;72.90;;;;;;5489696;21;20578;-88
2024/05/02 08:19:37;;;;;;;6.43;4.50;;;24.40;72.20;;;;;;5458762;26;20481;-87
2024/05/02 08:22:06;;;;;;;4.83;4.30;;;24.70;71.30;;;;;;5469311;26;20525;-88
2024/05/02 08:24:34;;;;;;;5.30;4.80;;;25.30;70.80;;;;;;5482851;26;20551;-87
2024/05/02 08:27:03;;;;;;;4.07;3.77;;;25.40;71.50;;;;;;5470618;26;20574;-87
2024/05/02 08:29:31;;;;;;;6.63;4.43;;;25.70;69.60;;;;;;5464989;26;20445;-86
2024/05/02 08:32:00;;;;;;;4.67;4.17;;;26.10;68.30;;;;;;5449636;26;20457;-88
2024/05/02 08:34:31;;;;;;;4.87;4.17;;;26.60;67.20;;;;;;5428657;26;20571;-87
2024/05/02 08:37:02;;;;;;;4.60;4.30;;;26.90;67.60;;;;;;5427043;26;20578;-88
2024/05/02 08:39:30;;;;;;;7.27;4.57;;;27.70;65.70;;;;;;5445016;26;21041;-87
2024/05/02 08:42:05;;;;;;;10.57;4.90;;;28.40;63.30;;;;;;5451613;26;20480;-87
2024/05/02 08:44:34;;;;;;;6.87;3.90;;;29.50;60.00;;;;;;5425770;26;20896;-88
2024/05/02 08:47:06;;;;;;;4.87;3.73;;;30.10;65.80;;;;;;5425171;26;20577;-88
2024/05/02 08:49:35;;;;;;;3.80;3.50;;;31.00;61.90;;;;;;5423288;26;20490;-88
2024/05/02 08:52:07;;;;;;;3.77;3.57;;;31.30;58.10;;;;;;5441192;26;20482;-88
2024/05/02 08:54:36;;;;;;;6.23;3.50;;;;;;;;;;5448701;26;20481;-89
2024/05/02 08:57:08;;;;;;;4.23;3.80;;;33.10;58.70;;;;;;5455318;26;21080;-88
2024/05/02 08:59:37;;;;;;;4.77;3.40;;;33.80;58.20;;;;;;5456765;26;20445;-86
2024/05/02 09:02:06;;;;;;;6.80;3.97;;;34.50;53.70;;;;;;5438130;26;20556;-89
2024/05/02 09:04:34;;;;;;;3.03;2.83;;;35.30;52.70;;;;;;5446674;26;20538;-87
2024/05/02 09:07:06;;;;;;;4.23;3.40;;;36.00;51.70;;;;;;5457795;26;20563;-88
2024/05/02 09:09:34;;;;;;;3.77;3.40;;;36.40;49.60;;;;;;5440628;26;20482;-88
2024/05/02 09:12:03;;;;;;;3.90;3.43;;;36.70;48.90;;;;;;5429772;26;20500;-88
2024/05/02 09:14:31;;;;;;;3.10;2.80;;;37.10;48.50;;;;;;5420696;26;20494;-88
2024/05/02 09:17:00;;;;;;;3.90;3.60;;;37.70;47.80;;;;;;5420521;26;20511;-88
2024/05/02 09:19:28;;;;;;;3.83;3.20;;;37.90;46.30;;;;;;5420600;26;20517;-88
2024/05/02 09:21:58;;;;;;;3.50;3.20;;;38.50;46.40;;;;;;5435835;26;20624;-87
2024/05/02 09:24:30;;;;;;;4.97;3.57;;;38.60;45.20;;;;;;5434000;26;20342;-88
2024/05/02 09:26:59;;;;;;;3.70;3.40;;;38.90;44.50;;;;;;5420533;26;20240;-88
2024/05/02 09:29:28;;;;;;;3.57;3.03;;;39.10;43.50;;;;;;5436694;26;20349;-87
2024/05/02 09:31:56;;;;;;;7.23;2.90;;;39.20;44.80;;;;;;5439248;26;20278;-88
2024/05/02 09:34:25;;;;;;;5.50;3.30;;;39.80;44.20;;;;;;5461198;26;20569;-87
2024/05/02 09:36:56;;;;;;;4.65;2.80;;;40.20;41.90;;;;;;5460435;26;20243;-88
2024/05/02 09:39:26;;;;;;;3.17;2.90;;;40.30;41.70;;;;;;5459606;26;20223;-87
2024/05/02 09:42:03;;;;;;;3.97;3.50;;;40.30;41.90;;;;;;5441001;26;20323;-87
2024/05/02 09:44:35;;;;;;;2.60;2.47;;;40.20;41.60;;;;;;5423833;26;20300;-87
2024/05/02 09:47:09;;;;;;;5.63;2.80;;;40.20;41.20;;;;;;5424080;26;20232;-88
2024/05/02 09:49:43;;;;;;;3.00;2.80;;;40.40;40.50;;;;;;5461286;26;20804;-88
2024/05/02 09:52:23;;;;;;;3.13;2.90;;;40.60;40.00;;;;;;5441576;26;20300;-88
2024/05/02 09:54:53;;;;;;;4.90;2.70;;;41.00;43.60;;;;;;5430022;26;20354;-85
2024/05/02 09:57:25;;;;;;;4.25;3.00;;;41.50;44.20;;;;;;5423788;26;20341;-86
2024/05/02 09:59:57;;;;;;;3.25;2.80;;;41.60;51.20;;;;;;5423112;26;20264;-85
2024/05/02 10:02:26;;;;;;;8.57;3.28;;;41.70;35.90;;;;;;5448973;26;20247;-85
2024/05/02 10:04:57;;;;;;;2.97;2.72;;;41.80;36.00;;;;;;5442773;26;20260;-87
2024/05/02 10:07:27;;;;;;;3.72;2.70;;;41.80;36.20;;;;;;5439559;26;20373;-87
2024/05/02 10:10:16;;;;;;;2.75;2.55;;;41.60;36.30;;;;;;5438359;26;20724;-88
2024/05/02 10:12:55;;;;;;;2.72;2.63;;;41.40;36.80;;;;;;5425234;26;20852;-88
2024/05/02 10:15:25;;;;;;;5.47;3.25;;;41.10;36.20;;;;;;5425344;26;20232;-88
2024/05/02 10:17:54;;;;;;;4.20;2.93;;;41.20;35.60;;;;;;5423688;26;20308;-85
2024/05/02 10:20:23;;;;;;;3.17;2.97;;;41.10;35.20;;;;;;5438444;26;20780;-86
2024/05/02 10:22:51;;;;;;;5.93;2.90;;;40.80;36.40;;;;;;5425306;26;20220;-88
2024/05/02 10:25:30;;;;;;;3.83;2.87;;;39.90;36.10;;;;;;5425738;26;20221;-88
2024/05/02 10:28:04;;;;;;;3.67;3.27;;;38.80;36.50;;;;;;5430863;26;20477;-87
2024/05/02 10:30:33;;;;;;;3.33;3.00;;;37.30;37.50;;;;;;5440148;26;20516;-88
2024/05/02 10:33:04;;;;;;;4.03;3.20;;;36.30;38.60;;;;;;5426105;26;20563;-88
2024/05/02 10:35:33;;;;;;;3.20;3.00;;;34.90;39.50;;;;;;5429800;26;20581;-88
2024/05/02 10:38:02;;;;;;;4.93;3.93;;;33.70;40.50;;;;;;5437619;26;20481;-87
2024/05/02 10:40:31;;;;;;;5.37;4.07;;;32.70;38.60;;;;;;5444338;26;20567;-86
2024/05/02 10:43:00;;;;;;;6.00;4.03;;;31.50;39.80;;;;;;5452749;26;20678;-87
2024/05/02 10:45:31;;;;;;;4.30;3.90;;;30.70;40.40;;;;;;5467628;26;20485;-88
2024/05/02 10:47:59;;;;;;;6.20;4.27;;;30.00;41.60;;;;;;5463048;26;20489;-87
2024/05/02 10:50:29;;;;;;;4.30;4.00;;;29.40;43.70;;;;;;5450279;26;20583;-87
2024/05/02 10:52:58;;;;;;;4.23;3.90;;;28.90;44.90;;;;;;5466016;26;20505;-87
2024/05/02 10:55:26;;;;;;;4.43;4.13;;;28.50;46.30;;;;;;5467587;26;20457;-87
2024/05/02 10:57:55;;;;;;;6.87;4.77;;;28.10;47.30;;;;;;5455445;26;20470;-86
2024/05/02 11:00:23;;;;;;;8.93;4.43;;;27.80;47.20;;;;;;5446607;26;20478;-87
2024/05/02 11:02:55;;;;;;;4.27;3.87;;;27.60;47.30;;;;;;5431755;26;20463;-87
2024/05/02 11:05:24;;;;;;;3.80;3.53;;;27.40;47.80;;;;;;5429373;26;20467;-87
2024/05/02 11:07:54;;;;;;;3.57;3.27;;;27.30;48.10;;;;;;5444820;26;20473;-87
2024/05/02 11:10:25;;;;;;;4.50;3.70;;;27.20;48.30;;;;;;5429804;26;20486;-87
2024/05/02 11:12:53;;;;;;;9.90;4.57;;;27.20;49.00;;;;;;5431520;26;20485;-87
2024/05/02 11:15:23;;;;;;;5.90;3.40;;;27.00;49.00;;;;;;5431449;26;20454;-88
2024/05/02 11:17:54;;;;;;;5.40;4.53;;;27.00;49.40;;;;;;5443847;26;20473;-87
2024/05/02 11:20:22;;;;;;;8.23;4.50;;;26.70;49.30;;;;;;5453066;26;20529;-87
2024/05/02 11:22:55;;;;;;;6.93;4.10;;;27.00;49.90;;;;;;5438498;26;20544;-87
2024/05/02 11:25:24;;;;;;;4.63;4.33;;;26.90;50.40;;;;;;5431434;26;20450;-87
2024/05/02 11:27:54;;;;;;;4.90;3.97;;;26.80;50.30;;;;;;5441751;26;20477;-87
2024/05/02 11:30:29;;;;;;;6.40;4.03;;;26.80;50.50;;;;;;5430883;26;20559;-86
2024/05/02 11:33:02;;;;;;;4.43;3.80;;;26.70;51.10;;;;;;5431647;26;20498;-88
2024/05/02 11:35:31;;;;;;;5.30;4.00;;;26.70;50.80;;;;;;5432027;26;20454;-87
2024/05/02 11:38:00;;;;;;;4.67;4.20;;;26.70;50.10;;;;;;5433395;26;20487;-87
2024/05/02 11:40:28;;;;;;;4.17;3.87;;;26.60;50.90;;;;;;5452427;26;20465;-87
2024/05/02 11:42:59;;;;;;;4.77;4.37;;;26.50;51.70;;;;;;5439182;26;20490;-87
2024/05/02 11:45:28;;;;;;;4.50;3.83;;;26.50;51.50;;;;;;5432163;26;20458;-88
2024/05/02 11:47:59;;;;;;;11.00;4.33;;;26.50;52.30;;;;;;5430821;26;20526;-87
2024/05/02 11:50:28;;;;;;;5.03;4.50;;;26.50;52.30;;;;;;5451908;26;20461;-88
2024/05/02 11:52:56;;;;;;;5.83;4.37;;;26.40;51.90;;;;;;5467241;26;20465;-87
2024/05/02 11:55:25;;;;;;;6.50;4.60;;;26.30;52.30;;;;;;5435418;26;20589;-88
2024/05/02 11:57:54;;;;;;;5.77;3.87;;;26.20;52.20;;;;;;5437028;26;20477;-88
2024/05/02 12:00:27;;;;;;;7.00;4.33;;;26.10;52.10;;;;;;5431609;26;20558;-87
2024/05/02 12:02:56;;;;;;;4.60;4.00;;;26.10;50.70;;;;;;5433319;26;20427;-88
2024/05/02 12:05:27;;;;;;;7.00;5.20;;;26.00;49.60;;;;;;5437386;26;21039;-87
2024/05/02 12:07:56;;;;;;;5.80;4.83;;;25.90;49.50;;;;;;5448526;26;20470;-87
2024/05/02 12:10:24;;;;;;;4.77;4.37;;;25.90;49.60;;;;;;5439928;26;20514;-87
2024/05/02 12:12:53;;;;;;;6.77;4.30;;;25.80;50.00;;;;;;5466374;26;20497;-87
2024/05/02 12:15:22;;;;;;;7.10;4.60;;;25.90;50.10;;;;;;5459140;26;20467;-87
2024/05/02 12:17:50;;;;;;;5.07;4.60;;;25.90;50.30;;;;;;5446885;26;20482;-87
2024/05/02 12:20:19;;;;;;;4.77;4.07;;;25.90;50.40;;;;;;5432362;26;20446;-87
2024/05/02 12:22:51;;;;;;;6.60;4.00;;;25.90;49.90;;;;;;5431880;26;20530;-86
2024/05/02 12:25:20;;;;;;;4.40;4.00;;;26.00;49.30;;;;;;5438465;26;20532;-87
2024/05/02 12:27:49;;;;;;;5.93;3.90;;;26.00;49.80;;;;;;5452673;26;20528;-86
2024/05/02 12:30:18;;;;;;;4.70;4.23;;;26.00;49.20;;;;;;5436741;26;20475;-87
2024/05/02 12:32:46;;;;;;;5.40;3.97;;;26.00;49.40;;;;;;5432579;26;20549;-86
2024/05/02 12:35:15;;;;;;;6.00;4.00;;;25.90;49.20;;;;;;5434186;26;20521;-87
2024/05/02 12:37:44;;;;;;;5.60;4.03;;;25.90;49.40;;;;;;5445143;26;20478;-86
2024/05/02 12:40:16;;;;;;;5.53;3.57;;;25.90;49.20;;;;;;5431635;26;20454;-86
2024/05/02 12:42:47;;;;;;;4.00;3.50;;;25.90;49.80;;;;;;5433745;26;20454;-87
2024/05/02 12:45:15;;;;;;;8.53;4.23;;;25.90;49.90;;;;;;5434706;26;20477;-87
2024/05/02 12:47:43;;;;;;;5.50;3.63;;;26.00;50.40;;;;;;5447553;26;20470;-87
2024/05/02 12:50:12;;;;;;;4.53;4.10;;;26.00;50.20;;;;;;5432764;26;20450;-87
2024/05/02 12:52:41;;;;;;;9.33;4.47;;;26.00;49.90;;;;;;5457025;26;20464;-87
2024/05/02 12:55:10;;;;;;;4.00;3.70;;;26.20;50.20;;;;;;5461103;26;20488;-88
2024/05/02 12:57:42;;;;;;;4.40;3.40;;;26.00;50.00;;;;;;5446760;26;20554;-86